首页
METAR-TAF:

METAR-TAF

机场 :

Cherry Capital Airport

特拉弗斯城, 密歇根州, 美国

纬度: 44-44-12N, 经度: 085-34-12W, 海拔: 190米

当前天气观测

该预报发布于53分钟前的17:53 UTC
风速5节,风向
温度 -5°C
湿度 58%
气压 1040 hPa
能見度: 16.1公里
少量云层高于2800英尺
阴天层高于25000英尺

METAR: KTVC 171753Z 18005KT 10SM FEW028 OVC250 M05/M12 A3070 RMK AO2 SLP408 4/004 60000 T10501117 11050 21067 58030

时间: 13:46 (18:46 UTC)

预报

该预报发布于53分钟前的17:53 UTC
预报有效从17日的 18点(UTC)到 18日的 18点(UTC)
风速8节,风向南转南东
能見度: 10公里
散云层高于2600英尺
多云层高于25000英尺
从 18日的 0400点(UTC)
风速11节,风向东南,有时为19节阵风
能見度: 10公里
阴天层高于3500英尺
附近有阵雨
从 18日的 0600点(UTC)
风速13节,风向东南,有时为21节阵风
能見度: 2.4公里
阴天层高于2500英尺
小雪
从 18日的 1100点(UTC)
风速15节,风向东南,有时为27节阵风
能見度: 2.4公里
阴天层高于1800英尺
小雪
从 18日的 1400点(UTC)
风速13节,风向南转南东,有时为23节阵风
能見度: 1.6公里
阴天层高于1500英尺
小雪

TAF: KTVC 171753Z 1718/1818 15008KT P6SM SCT026 BKN250 FM180400 14011G19KT P6SM VCSH OVC035 FM180600 14013G21KT 1 1/2SM -SN OVC025 FM181100 14015G27KT 1 1/2SM -SN OVC018 FM181400 15013G23KT 1SM -SN OVC015

超过4000个机场的气象观测和天气预报(METAR&TAF报告)。

可查询的气象台以黄色和红色小点在地图上表示。

将鼠标移到小点上方,可查看气象台名称。

然后点击查看天气观测和预报。

如需切换地图:点击带黑十字的绿色按钮放大地图;点击带横线的绿色按钮缩小地图;或者点击绿色箭头查看邻近地区的地图。


METAR-TAF: